createdAt,value
2023-02-11T00:00:45.690Z,65.80
2023-02-11T00:03:12.891Z,70.93
2023-02-11T00:05:40.073Z,61.72
2023-02-11T00:08:07.151Z,67.53
2023-02-11T00:10:34.220Z,63.78
2023-02-11T00:13:01.469Z,65.70
2023-02-11T00:15:28.504Z,60.40
2023-02-11T00:17:55.707Z,62.83
2023-02-11T00:20:22.822Z,61.40
2023-02-11T00:22:49.903Z,58.67
2023-02-11T00:25:16.936Z,65.45
2023-02-11T00:27:44.058Z,64.45
2023-02-11T00:30:11.935Z,59.35
2023-02-11T00:32:39.006Z,63.60
2023-02-11T00:35:06.591Z,58.83
2023-02-11T00:37:36.570Z,55.70
2023-02-11T00:40:06.836Z,61.35
2023-02-11T00:42:35.776Z,58.38
2023-02-11T00:45:02.918Z,58.58
2023-02-11T00:47:30.050Z,60.00
2023-02-11T00:49:57.210Z,61.88
2023-02-11T00:52:24.294Z,66.50
2023-02-11T00:54:51.454Z,63.38
2023-02-11T00:57:18.550Z,64.90
2023-02-11T00:59:45.622Z,61.60
2023-02-11T01:02:12.661Z,55.00
2023-02-11T01:04:39.775Z,57.65
2023-02-11T01:07:06.847Z,58.03
2023-02-11T01:09:33.856Z,59.50
2023-02-11T01:12:01.032Z,65.05
2023-02-11T01:14:28.195Z,62.08
2023-02-11T01:16:55.241Z,59.78
2023-02-11T01:19:22.272Z,65.65
2023-02-11T01:21:49.342Z,59.53
2023-02-11T01:24:16.411Z,62.58
2023-02-11T01:26:43.496Z,58.28
2023-02-11T01:29:10.661Z,62.78
2023-02-11T01:31:37.831Z,60.90
2023-02-11T01:34:05.029Z,68.75
2023-02-11T01:36:32.121Z,62.40
2023-02-11T01:38:59.190Z,64.68
2023-02-11T01:41:26.275Z,69.28
2023-02-11T01:43:53.307Z,61.83
2023-02-11T01:46:37.533Z,65.55
2023-02-11T01:49:19.645Z,61.55
2023-02-11T01:52:03.852Z,62.75
2023-02-11T01:54:52.806Z,61.75
2023-02-11T01:57:27.221Z,64.00
2023-02-11T02:00:12.715Z,58.13
2023-02-11T02:02:46.572Z,61.85
2023-02-11T02:05:41.348Z,51.83
2023-02-11T02:08:17.985Z,60.13
2023-02-11T02:10:48.721Z,57.63
2023-02-11T02:13:16.359Z,57.35
2023-02-11T02:15:57.116Z,58.35
2023-02-11T02:18:49.221Z,55.25
2023-02-11T02:21:53.758Z,54.08
2023-02-11T02:24:56.881Z,59.22
2023-02-11T02:27:39.130Z,57.70
2023-02-11T02:30:24.586Z,62.10
2023-02-11T02:33:05.818Z,57.47
2023-02-11T02:36:05.560Z,56.53
2023-02-11T02:38:36.232Z,58.55
2023-02-11T02:41:05.098Z,58.85
2023-02-11T02:43:34.034Z,60.42
2023-02-11T02:46:25.759Z,51.28
2023-02-11T02:48:54.318Z,53.50
2023-02-11T02:51:57.368Z,56.00
2023-02-11T02:54:45.078Z,51.50
2023-02-11T02:57:49.007Z,61.97
2023-02-11T03:00:32.493Z,42.67
2023-02-11T03:03:09.271Z,57.47
2023-02-11T03:06:12.726Z,53.80
2023-02-11T03:08:46.182Z,52.33
2023-02-11T03:11:17.498Z,48.80
2023-02-11T03:13:46.097Z,53.35
2023-02-11T03:16:17.720Z,56.65
2023-02-11T03:18:51.476Z,54.30
2023-02-11T03:21:19.876Z,50.38
2023-02-11T03:23:59.922Z,58.58
2023-02-11T03:26:59.008Z,51.13
2023-02-11T03:29:39.182Z,55.33
2023-02-11T03:32:18.428Z,50.97
2023-02-11T03:34:57.474Z,51.22
2023-02-11T03:37:45.564Z,53.58
2023-02-11T03:40:17.378Z,53.20
2023-02-11T03:42:51.054Z,50.72
2023-02-11T03:47:58.118Z,50.20
2023-02-11T03:50:27.526Z,52.95
2023-02-11T03:52:56.918Z,52.55
2023-02-11T03:55:26.105Z,55.75
2023-02-11T03:57:53.198Z,55.55
2023-02-11T04:00:20.510Z,64.78
2023-02-11T04:02:47.622Z,48.00
2023-02-11T04:05:16.422Z,54.85
2023-02-11T04:07:43.503Z,53.88
2023-02-11T04:10:12.265Z,57.30
2023-02-11T04:12:39.238Z,52.25
2023-02-11T04:15:06.788Z,50.88
2023-02-11T04:17:33.903Z,53.72
2023-02-11T04:20:00.864Z,54.47
2023-02-11T04:22:27.806Z,48.67
2023-02-11T04:24:54.781Z,48.72
2023-02-11T04:27:21.810Z,47.35
2023-02-11T04:29:48.856Z,51.78
2023-02-11T04:32:15.925Z,47.45
2023-02-11T04:34:42.871Z,49.38
2023-02-11T04:37:09.829Z,44.60
2023-02-11T04:39:36.988Z,48.35
2023-02-11T04:42:04.213Z,50.38
2023-02-11T04:44:31.501Z,50.53
2023-02-11T04:46:58.470Z,45.75
2023-02-11T04:49:25.613Z,49.90
2023-02-11T04:51:52.615Z,43.38
2023-02-11T04:54:20.062Z,46.53
2023-02-11T04:56:47.072Z,49.17
2023-02-11T04:59:14.326Z,48.95
2023-02-11T05:01:41.878Z,45.38
2023-02-11T05:04:09.126Z,43.65
2023-02-11T05:06:38.012Z,46.60
2023-02-11T05:09:05.123Z,48.25
2023-02-11T05:11:33.463Z,49.22
2023-02-11T05:14:00.559Z,43.08
2023-02-11T05:16:28.453Z,44.05
2023-02-11T05:18:55.921Z,49.83
2023-02-11T05:21:23.218Z,50.22
2023-02-11T05:23:50.345Z,47.38
2023-02-11T05:26:17.766Z,47.55
2023-02-11T05:28:47.998Z,50.15
2023-02-11T05:31:15.239Z,45.85
2023-02-11T05:33:42.925Z,49.40
2023-02-11T05:36:12.360Z,47.10
2023-02-11T05:38:40.199Z,45.65
2023-02-11T05:41:07.555Z,51.80
2023-02-11T05:43:37.283Z,46.08
2023-02-11T05:46:05.240Z,49.83
2023-02-11T05:48:32.745Z,45.35
2023-02-11T05:50:59.881Z,45.33
2023-02-11T05:53:26.924Z,46.63
2023-02-11T05:55:53.987Z,49.78
2023-02-11T05:58:21.095Z,45.55
2023-02-11T06:00:48.160Z,45.92
2023-02-11T06:03:15.248Z,45.85
2023-02-11T06:05:44.211Z,48.38
2023-02-11T06:08:11.746Z,48.25
2023-02-11T06:10:39.481Z,49.60
2023-02-11T06:13:06.521Z,50.05
2023-02-11T06:15:33.502Z,47.65
2023-02-11T06:18:00.582Z,47.53
2023-02-11T06:20:27.688Z,45.30
2023-02-11T06:22:54.726Z,47.53
2023-02-11T06:25:21.765Z,47.15
2023-02-11T06:27:48.832Z,47.53
2023-02-11T06:30:15.957Z,51.63
2023-02-11T06:32:45.218Z,46.58
2023-02-11T06:35:14.573Z,45.92
2023-02-11T06:37:42.288Z,45.83
2023-02-11T06:40:10.632Z,42.42
2023-02-11T06:42:40.198Z,44.20
2023-02-11T06:45:09.685Z,41.13
2023-02-11T06:47:37.528Z,40.83
2023-02-11T06:50:06.062Z,45.70
2023-02-11T06:52:33.815Z,44.65
2023-02-11T06:55:00.910Z,47.53
2023-02-11T06:57:27.988Z,44.00
2023-02-11T06:59:55.799Z,42.85
2023-02-11T07:02:22.842Z,45.20
2023-02-11T07:04:50.245Z,48.20
2023-02-11T07:07:17.280Z,48.25
2023-02-11T07:09:44.315Z,42.90
2023-02-11T07:12:11.396Z,42.17
2023-02-11T07:14:38.454Z,40.83
2023-02-11T07:17:05.611Z,43.78
2023-02-11T07:19:32.683Z,45.95
2023-02-11T07:21:59.698Z,46.80
2023-02-11T07:24:26.902Z,45.60
2023-02-11T07:26:54.301Z,57.38
2023-02-11T07:29:21.508Z,48.50
2023-02-11T07:31:48.840Z,50.35
2023-02-11T07:34:16.032Z,50.72
2023-02-11T07:36:50.500Z,53.92
2023-02-11T07:39:17.623Z,47.72
2023-02-11T07:41:47.890Z,40.78
2023-02-11T07:44:21.572Z,38.13
2023-02-11T07:46:50.642Z,39.83
2023-02-11T07:49:17.777Z,37.58
2023-02-11T07:51:45.977Z,41.45
2023-02-11T07:54:13.107Z,37.65
2023-02-11T07:56:40.153Z,42.97
2023-02-11T07:59:07.326Z,38.55
2023-02-11T08:01:34.429Z,36.08
2023-02-11T08:04:02.450Z,36.45
2023-02-11T08:06:32.973Z,35.75
2023-02-11T08:09:07.223Z,33.60
2023-02-11T08:11:34.322Z,35.42
2023-02-11T08:14:01.696Z,56.20
2023-02-11T08:16:37.188Z,47.80
2023-02-11T08:19:08.961Z,40.25
2023-02-11T08:21:36.037Z,34.83
2023-02-11T08:24:04.204Z,33.78
2023-02-11T08:26:34.546Z,34.85
2023-02-11T08:29:03.619Z,36.78
2023-02-11T08:31:35.388Z,43.05
2023-02-11T08:34:02.940Z,42.58
2023-02-11T08:36:33.027Z,37.08
2023-02-11T08:39:17.440Z,39.95
2023-02-11T08:41:46.434Z,30.95
2023-02-11T08:44:14.015Z,31.23
2023-02-11T08:46:41.039Z,30.60
2023-02-11T08:49:08.215Z,37.60
2023-02-11T08:51:35.327Z,41.75
2023-02-11T08:54:02.472Z,37.80
2023-02-11T08:56:40.544Z,39.83
2023-02-11T08:59:09.607Z,39.83
2023-02-11T09:01:36.934Z,28.38
2023-02-11T09:04:04.058Z,24.80
2023-02-11T09:06:32.056Z,21.45
2023-02-11T09:08:59.258Z,22.30
2023-02-11T09:11:33.366Z,22.25
2023-02-11T09:14:02.264Z,21.70
2023-02-11T09:16:31.888Z,20.65
2023-02-11T09:19:00.887Z,20.65
2023-02-11T09:21:28.636Z,22.02
2023-02-11T09:23:55.977Z,19.38
2023-02-11T09:26:31.923Z,21.30
2023-02-11T09:28:59.595Z,19.88
2023-02-11T09:31:28.822Z,21.65
2023-02-11T09:34:07.194Z,19.48
2023-02-11T09:36:40.448Z,20.00
2023-02-11T09:39:12.379Z,21.33
2023-02-11T09:42:08.481Z,18.73
2023-02-11T09:44:37.536Z,20.63
2023-02-11T09:47:15.104Z,19.20
2023-02-11T09:49:49.055Z,19.77
2023-02-11T09:52:43.696Z,20.48
2023-02-11T09:55:34.381Z,22.10
2023-02-11T09:58:03.879Z,23.23
2023-02-11T10:01:02.171Z,19.35
2023-02-11T10:03:50.554Z,20.65
2023-02-11T10:06:38.458Z,19.38
2023-02-11T10:09:28.182Z,19.42
2023-02-11T10:12:21.306Z,19.63
2023-02-11T10:15:12.701Z,20.15
2023-02-11T10:18:04.385Z,21.52
2023-02-11T10:20:36.931Z,21.90
2023-02-11T10:23:22.728Z,19.45
2023-02-11T10:25:54.535Z,19.75
2023-02-11T10:28:25.136Z,19.23
2023-02-11T10:31:01.593Z,18.38
2023-02-11T10:33:35.907Z,21.38
2023-02-11T10:38:33.081Z,19.58
2023-02-11T10:41:00.284Z,20.08
2023-02-11T10:43:29.151Z,18.80
2023-02-11T10:45:57.713Z,19.20
2023-02-11T10:48:51.749Z,20.25
2023-02-11T10:51:25.836Z,20.52
2023-02-11T10:54:05.110Z,18.95
2023-02-11T10:56:36.454Z,18.17
2023-02-11T10:59:22.677Z,19.45
2023-02-11T11:01:53.423Z,17.63
2023-02-11T11:04:45.011Z,21.67
2023-02-11T11:07:30.377Z,20.30
2023-02-11T11:10:02.829Z,20.30
2023-02-11T11:12:49.555Z,20.10
2023-02-11T11:15:31.290Z,21.05
2023-02-11T11:18:21.016Z,20.30
2023-02-11T11:21:07.747Z,21.52
2023-02-11T11:23:39.022Z,20.50
2023-02-11T11:26:10.393Z,18.88
2023-02-11T11:29:02.846Z,22.45
2023-02-11T11:31:53.085Z,20.63
2023-02-11T11:34:33.538Z,20.58
2023-02-11T11:37:09.839Z,20.70
2023-02-11T11:39:37.034Z,21.35
2023-02-11T11:42:22.009Z,22.05
2023-02-11T11:45:01.879Z,20.27
2023-02-11T11:48:12.992Z,21.27
2023-02-11T11:50:50.006Z,23.83
2023-02-11T11:53:27.733Z,23.77
2023-02-11T11:56:13.257Z,22.00
2023-02-11T11:58:40.743Z,23.10
2023-02-11T12:01:34.802Z,27.63
2023-02-11T12:04:23.713Z,23.47
2023-02-11T12:06:51.449Z,22.45
2023-02-11T12:09:30.572Z,25.00
2023-02-11T12:12:15.736Z,21.88
2023-02-11T12:15:14.656Z,22.48
2023-02-11T12:17:59.606Z,22.27
2023-02-11T12:20:44.586Z,21.38
2023-02-11T12:23:29.272Z,22.63
2023-02-11T12:26:04.542Z,22.58
2023-02-11T12:28:49.816Z,24.40
2023-02-11T12:31:49.181Z,29.42
2023-02-11T12:34:34.322Z,22.25
2023-02-11T12:37:02.803Z,23.98
2023-02-11T12:39:42.348Z,25.60
2023-02-11T12:43:02.709Z,24.80
2023-02-11T12:45:35.977Z,26.00
2023-02-11T12:48:37.049Z,25.30
2023-02-11T12:51:20.186Z,24.13
2023-02-11T12:53:53.954Z,23.50
2023-02-11T12:56:33.857Z,25.33
2023-02-11T12:59:05.202Z,24.90
2023-02-11T13:01:40.673Z,27.27
2023-02-11T13:04:37.311Z,25.17
2023-02-11T13:07:12.099Z,26.13
2023-02-11T13:09:44.812Z,27.33
2023-02-11T13:12:33.370Z,27.20
2023-02-11T13:15:06.521Z,26.05
2023-02-11T13:17:48.523Z,27.15
2023-02-11T13:20:44.051Z,26.35
2023-02-11T13:23:26.090Z,28.80
2023-02-11T13:26:17.675Z,27.63
2023-02-11T13:29:35.969Z,31.92
2023-02-11T13:32:14.966Z,28.80
2023-02-11T13:34:41.951Z,29.27
2023-02-11T13:37:39.838Z,28.73
2023-02-11T13:40:08.286Z,28.23
2023-02-11T13:42:58.504Z,29.20
2023-02-11T13:45:49.110Z,29.90
2023-02-11T13:48:16.016Z,29.73
2023-02-11T13:50:48.871Z,31.33
2023-02-11T13:53:17.457Z,31.10
2023-02-11T13:55:47.506Z,29.60
2023-02-11T13:58:14.546Z,30.83
2023-02-11T14:00:50.514Z,32.00
2023-02-11T14:03:42.067Z,27.95
2023-02-11T14:06:27.658Z,29.33
2023-02-11T14:09:09.851Z,29.15
2023-02-11T14:11:52.036Z,34.28
2023-02-11T14:14:30.878Z,30.40
2023-02-11T14:17:06.764Z,26.65
2023-02-11T14:19:43.885Z,27.05
2023-02-11T14:22:43.581Z,26.45
2023-02-11T14:25:39.127Z,28.67
2023-02-11T14:28:21.853Z,26.55
2023-02-11T14:31:21.221Z,28.40
2023-02-11T14:34:01.303Z,28.85
2023-02-11T14:36:43.835Z,27.45
2023-02-11T14:39:29.119Z,26.52
2023-02-11T14:41:56.723Z,24.15
2023-02-11T14:44:27.522Z,27.98
2023-02-11T14:46:55.691Z,26.15
2023-02-11T14:49:29.812Z,26.38
2023-02-11T14:54:29.058Z,25.42
2023-02-11T14:57:22.529Z,27.00
2023-02-11T15:00:02.945Z,25.35
2023-02-11T15:02:38.314Z,25.75
2023-02-11T15:05:27.936Z,26.17
2023-02-11T15:07:59.401Z,25.50
2023-02-11T15:10:35.787Z,25.85
2023-02-11T15:13:04.144Z,27.65
2023-02-11T15:15:32.623Z,27.63
2023-02-11T15:18:02.713Z,27.63
2023-02-11T15:20:33.616Z,26.02
2023-02-11T15:23:05.006Z,25.17
2023-02-11T15:25:34.148Z,27.25
2023-02-11T15:28:01.702Z,24.25
2023-02-11T15:30:34.303Z,27.35
2023-02-11T15:33:05.554Z,27.45
2023-02-11T15:35:41.335Z,26.80
2023-02-11T15:38:11.247Z,26.95
2023-02-11T15:40:38.414Z,27.58
2023-02-11T15:43:08.248Z,26.27
2023-02-11T15:45:42.783Z,27.98
2023-02-11T15:48:18.826Z,26.17
2023-02-11T15:51:14.031Z,27.02
2023-02-11T15:53:43.465Z,29.10
2023-02-11T15:56:14.590Z,34.95
2023-02-11T15:58:45.036Z,51.80
2023-02-11T16:01:12.941Z,32.40
2023-02-11T16:03:41.996Z,51.40
2023-02-11T16:06:36.278Z,42.15
2023-02-11T16:09:24.887Z,34.60
2023-02-11T16:11:58.345Z,37.85
2023-02-11T16:14:31.090Z,31.90
2023-02-11T16:17:22.482Z,31.95
2023-02-11T16:19:53.462Z,34.72
2023-02-11T16:22:25.950Z,33.90
2023-02-11T16:24:55.386Z,30.75
2023-02-11T16:27:28.581Z,30.35
2023-02-11T16:29:56.738Z,33.87
2023-02-11T16:32:27.326Z,31.05
2023-02-11T16:34:58.072Z,30.30
2023-02-11T16:37:26.025Z,29.88
2023-02-11T16:39:57.140Z,34.15
2023-02-11T16:42:24.702Z,32.17
2023-02-11T16:44:51.700Z,31.73
2023-02-11T16:47:28.857Z,28.95
2023-02-11T16:49:56.386Z,29.10
2023-02-11T16:52:24.560Z,31.30
2023-02-11T16:54:51.680Z,29.00
2023-02-11T16:57:22.192Z,33.80
2023-02-11T16:59:49.905Z,29.85
2023-02-11T17:02:29.686Z,30.40
2023-02-11T17:04:59.949Z,30.40
2023-02-11T17:07:27.876Z,31.85
2023-02-11T17:09:54.959Z,29.65
2023-02-11T17:12:21.973Z,31.33
2023-02-11T17:14:49.009Z,30.60
2023-02-11T17:17:16.289Z,29.08
2023-02-11T17:19:43.724Z,32.22
2023-02-11T17:22:11.703Z,29.95
2023-02-11T17:24:38.694Z,30.27
2023-02-11T17:27:05.709Z,31.05
2023-02-11T17:29:32.685Z,31.55
2023-02-11T17:31:59.768Z,32.58
2023-02-11T17:34:29.317Z,32.08
2023-02-11T17:36:58.039Z,33.30
2023-02-11T17:39:26.024Z,36.05
2023-02-11T17:41:53.094Z,33.83
2023-02-11T17:44:20.210Z,35.33
2023-02-11T17:46:47.170Z,30.33
2023-02-11T17:49:14.227Z,35.00
2023-02-11T17:51:41.372Z,37.75
2023-02-11T17:54:14.154Z,37.85
2023-02-11T17:56:42.173Z,35.50
2023-02-11T17:59:10.411Z,36.83
2023-02-11T18:01:38.564Z,36.53
2023-02-11T18:04:06.820Z,38.03
2023-02-11T18:06:34.417Z,37.20
2023-02-11T18:09:04.444Z,36.72
2023-02-11T18:11:33.464Z,35.50
2023-02-11T18:14:02.083Z,39.03
2023-02-11T18:16:30.533Z,38.28
2023-02-11T18:18:58.953Z,39.88
2023-02-11T18:21:26.026Z,36.70
2023-02-11T18:23:53.231Z,35.00
2023-02-11T18:26:22.047Z,35.38
2023-02-11T18:28:49.104Z,39.45
2023-02-11T18:31:16.285Z,36.50
2023-02-11T18:33:43.648Z,37.53
2023-02-11T18:36:14.145Z,39.55
2023-02-11T18:38:42.183Z,36.80
2023-02-11T18:41:09.139Z,35.72
2023-02-11T18:43:36.834Z,36.75
2023-02-11T18:46:09.781Z,36.05
2023-02-11T18:48:37.065Z,36.90
2023-02-11T18:51:20.878Z,44.35
2023-02-11T18:53:47.968Z,39.80
2023-02-11T18:56:20.827Z,35.92
2023-02-11T18:58:48.759Z,33.55
2023-02-11T19:01:17.015Z,33.83
2023-02-11T19:03:45.462Z,33.50
2023-02-11T19:06:22.262Z,34.75
2023-02-11T19:08:49.295Z,36.40
2023-02-11T19:11:18.778Z,38.03
2023-02-11T19:13:47.969Z,37.30
2023-02-11T19:16:16.969Z,36.97
2023-02-11T19:18:44.658Z,36.60
2023-02-11T19:21:12.563Z,35.58
2023-02-11T19:23:39.682Z,36.03
2023-02-11T19:26:06.842Z,48.60
2023-02-11T19:28:37.255Z,44.42
2023-02-11T19:31:09.553Z,49.08
2023-02-11T19:33:36.686Z,46.30
2023-02-11T19:36:06.850Z,43.05
2023-02-11T19:38:34.877Z,40.75
2023-02-11T19:41:02.101Z,42.28
2023-02-11T19:43:29.309Z,40.55
2023-02-11T19:45:57.482Z,39.95
2023-02-11T19:48:25.017Z,41.50
2023-02-11T19:50:52.287Z,39.47
2023-02-11T19:53:19.507Z,40.22
2023-02-11T19:55:46.963Z,38.03
2023-02-11T19:58:14.588Z,38.15
2023-02-11T20:00:42.178Z,38.05
2023-02-11T20:06:07.256Z,36.15
2023-02-11T20:08:34.697Z,38.25
2023-02-11T20:11:19.745Z,37.55
2023-02-11T20:13:46.866Z,35.70
2023-02-11T20:16:18.782Z,39.33
2023-02-11T20:18:47.466Z,34.67
2023-02-11T20:21:22.147Z,38.72
2023-02-11T20:23:50.182Z,36.72
2023-02-11T20:26:20.209Z,37.10
2023-02-11T20:28:49.150Z,40.65
2023-02-11T20:31:16.445Z,37.20
2023-02-11T20:33:44.359Z,37.53
2023-02-11T20:36:15.554Z,40.95
2023-02-11T20:38:42.981Z,39.58
2023-02-11T20:41:15.620Z,43.53
2023-02-11T20:43:47.861Z,44.50
2023-02-11T20:46:17.302Z,43.92
2023-02-11T20:48:44.399Z,50.20
2023-02-11T20:51:15.689Z,48.08
2023-02-11T20:53:47.978Z,48.28
2023-02-11T20:56:15.955Z,45.08
2023-02-11T20:58:43.223Z,41.17
2023-02-11T21:01:21.623Z,44.78
2023-02-11T21:03:54.745Z,46.28
2023-02-11T21:06:23.574Z,32.50
2023-02-11T21:08:50.808Z,41.38
2023-02-11T21:11:17.827Z,45.45
2023-02-11T21:13:44.832Z,56.13
2023-02-11T21:16:15.548Z,59.17
2023-02-11T21:18:43.033Z,43.72
2023-02-11T21:21:10.111Z,45.15
2023-02-11T21:23:39.616Z,45.42
2023-02-11T21:26:07.251Z,46.45
2023-02-11T21:28:35.149Z,40.85
2023-02-11T21:31:03.031Z,46.03
2023-02-11T21:33:33.712Z,47.33
2023-02-11T21:36:05.020Z,43.58
2023-02-11T21:38:32.856Z,43.90
2023-02-11T21:41:04.655Z,39.60
2023-02-11T21:43:32.200Z,42.33
2023-02-11T21:45:59.335Z,46.67
2023-02-11T21:48:26.808Z,47.95
2023-02-11T21:50:54.157Z,44.65
2023-02-11T21:53:21.216Z,44.90
2023-02-11T21:55:49.381Z,44.05
2023-02-11T21:58:16.326Z,51.03
2023-02-11T22:00:43.402Z,47.47
2023-02-11T22:03:12.056Z,47.17
2023-02-11T22:05:41.337Z,46.90
2023-02-11T22:08:08.442Z,46.88
2023-02-11T22:10:35.421Z,45.88
2023-02-11T22:13:02.454Z,44.17
2023-02-11T22:15:29.488Z,45.42
2023-02-11T22:17:56.413Z,48.45
2023-02-11T22:20:23.421Z,46.03
2023-02-11T22:22:50.940Z,47.70
2023-02-11T22:25:19.097Z,47.53
2023-02-11T22:27:46.031Z,48.53
2023-02-11T22:30:14.290Z,44.72
2023-02-11T22:32:42.630Z,46.28
2023-02-11T22:35:09.664Z,48.63
2023-02-11T22:37:36.644Z,48.05
2023-02-11T22:40:03.754Z,46.30
2023-02-11T22:42:30.770Z,50.10
2023-02-11T22:44:58.054Z,43.15
2023-02-11T22:47:25.099Z,50.45
2023-02-11T22:49:52.008Z,51.78
2023-02-11T22:52:18.927Z,47.42
2023-02-11T22:54:45.985Z,44.78
2023-02-11T22:57:12.966Z,47.28
2023-02-11T22:59:39.902Z,44.03
2023-02-11T23:02:06.945Z,45.85
2023-02-11T23:04:33.980Z,45.75
2023-02-11T23:07:00.973Z,43.53
2023-02-11T23:09:27.933Z,44.80
2023-02-11T23:11:55.678Z,45.28
2023-02-11T23:14:22.752Z,48.30
2023-02-11T23:16:51.497Z,61.28
2023-02-11T23:19:19.021Z,75.82
2023-02-11T23:21:47.695Z,75.20
2023-02-11T23:24:15.398Z,91.97
2023-02-11T23:26:44.166Z,72.57
2023-02-11T23:29:12.102Z,53.72
2023-02-11T23:31:41.056Z,52.53
2023-02-11T23:34:08.862Z,41.72
2023-02-11T23:36:36.118Z,43.05
2023-02-11T23:39:03.807Z,44.50
2023-02-11T23:41:30.781Z,41.17
2023-02-11T23:43:58.555Z,42.60
2023-02-11T23:46:27.305Z,42.45
2023-02-11T23:48:54.789Z,40.58
2023-02-11T23:51:23.042Z,40.78
2023-02-11T23:53:51.502Z,40.90
2023-02-11T23:56:23.896Z,41.70
2023-02-11T23:58:52.426Z,36.63
